Norfolk, Virginia
Traffic Map
Current Weather Conditions
Norfolk, Virginia
Scattered Clouds
Scattered Clouds
79°
Feels Like: 83°
Wind Chill: 79° Ceiling: Unl
Heat Index: 83° Visibility: 10mi
Dew Point: 76° Wind: 8mph
Humidity: 90% Direction: 180° (S)
Pressure: 29.92in Gusts: 0mph
Raw Report DataKORF 180935Z AUTO 18007KT 10SM FEW012 SCT018 26/24 A2992 RMK AO2 T02610244 TSNO
Traffic Incident Summary
Active as of:
Severity:
Category:
InformationThere was an issue retrieving the traffic information for this location. Please try a different location or try again shortly.
Advertisements